createdAt,value
2023-04-10T00:00:43.203Z,13.40
2023-04-10T00:03:12.874Z,13.73
2023-04-10T00:05:40.181Z,16.07
2023-04-10T00:08:11.289Z,13.60
2023-04-10T00:10:38.106Z,12.70
2023-04-10T00:13:05.394Z,13.53
2023-04-10T00:15:32.592Z,18.70
2023-04-10T00:17:59.380Z,12.60
2023-04-10T00:20:28.846Z,12.50
2023-04-10T00:22:55.757Z,14.33
2023-04-10T00:25:26.618Z,13.03
2023-04-10T00:27:56.965Z,13.50
2023-04-10T00:30:30.905Z,15.83
2023-04-10T00:32:58.132Z,12.53
2023-04-10T00:35:24.913Z,14.57
2023-04-10T00:37:54.614Z,13.43
2023-04-10T00:40:21.914Z,16.33
2023-04-10T00:42:48.682Z,11.67
2023-04-10T00:45:17.838Z,14.07
2023-04-10T00:47:45.271Z,12.27
2023-04-10T00:50:14.199Z,13.23
2023-04-10T00:52:43.164Z,15.60
2023-04-10T00:55:12.389Z,13.23
2023-04-10T00:57:39.590Z,15.37
2023-04-10T01:00:06.952Z,16.63
2023-04-10T01:02:35.947Z,20.13
2023-04-10T01:05:03.232Z,16.53
2023-04-10T01:07:44.220Z,20.73
2023-04-10T01:10:12.074Z,17.33
2023-04-10T01:12:41.348Z,16.77
2023-04-10T01:15:16.152Z,20.00
2023-04-10T01:18:09.997Z,17.27
2023-04-10T01:20:39.494Z,16.57
2023-04-10T01:23:29.162Z,18.20
2023-04-10T01:26:01.922Z,16.27
2023-04-10T01:28:54.264Z,17.97
2023-04-10T01:31:35.662Z,17.57
2023-04-10T01:34:09.828Z,16.37
2023-04-10T01:36:42.810Z,16.97
2023-04-10T01:39:10.061Z,17.30
2023-04-10T01:41:37.330Z,15.53
2023-04-10T01:44:06.590Z,17.27
2023-04-10T01:46:33.852Z,18.77
2023-04-10T01:49:01.522Z,20.67
2023-04-10T01:51:28.867Z,18.47
2023-04-10T01:53:57.822Z,16.53
2023-04-10T01:56:27.118Z,20.10
2023-04-10T01:58:54.344Z,17.13
2023-04-10T02:01:29.272Z,20.20
2023-04-10T02:03:58.490Z,17.70
2023-04-10T02:06:26.526Z,17.17
2023-04-10T02:09:36.202Z,16.67
2023-04-10T02:12:06.833Z,18.17
2023-04-10T02:14:36.435Z,17.37
2023-04-10T02:17:03.687Z,17.37
2023-04-10T02:19:34.489Z,17.83
2023-04-10T02:22:01.680Z,16.00
2023-04-10T02:24:28.919Z,15.27
2023-04-10T02:26:56.528Z,18.20
2023-04-10T02:29:23.703Z,15.53
2023-04-10T02:31:52.933Z,16.20
2023-04-10T02:34:22.131Z,19.97
2023-04-10T02:36:52.223Z,18.83
2023-04-10T02:39:19.488Z,18.50
2023-04-10T02:41:46.672Z,15.77
2023-04-10T02:44:16.183Z,14.17
2023-04-10T02:46:43.497Z,14.10
2023-04-10T02:49:12.898Z,20.17
2023-04-10T02:51:40.450Z,16.77
2023-04-10T02:54:09.665Z,14.97
2023-04-10T02:56:37.030Z,14.97
2023-04-10T02:59:04.227Z,13.93
2023-04-10T03:01:32.183Z,14.87
2023-04-10T03:03:59.545Z,11.47
2023-04-10T03:06:27.390Z,14.97
2023-04-10T03:08:54.677Z,13.53
2023-04-10T03:11:23.698Z,16.70
2023-04-10T03:13:51.372Z,18.90
2023-04-10T03:16:18.991Z,18.60
2023-04-10T03:18:46.994Z,15.60
2023-04-10T03:21:14.207Z,15.30
2023-04-10T03:23:43.154Z,14.27
2023-04-10T03:26:10.309Z,16.57
2023-04-10T03:28:37.825Z,15.30
2023-04-10T03:31:05.839Z,12.57
2023-04-10T03:33:33.154Z,13.83
2023-04-10T03:36:02.265Z,14.87
2023-04-10T03:38:29.462Z,12.93
2023-04-10T03:40:56.835Z,14.00
2023-04-10T03:43:24.051Z,20.77
2023-04-10T03:45:51.049Z,17.53
2023-04-10T03:48:18.422Z,17.20
2023-04-10T03:50:45.633Z,18.30
2023-04-10T03:53:15.381Z,13.27
2023-04-10T03:55:42.664Z,18.93
2023-04-10T03:58:09.485Z,14.33
2023-04-10T04:00:36.656Z,15.53
2023-04-10T04:03:05.257Z,12.83
2023-04-10T04:05:32.771Z,16.30
2023-04-10T04:08:03.424Z,14.93
2023-04-10T04:10:32.611Z,15.33
2023-04-10T04:12:59.853Z,15.07
2023-04-10T04:15:27.144Z,15.97
2023-04-10T04:17:56.730Z,12.53
2023-04-10T04:20:23.949Z,14.50
2023-04-10T04:22:51.429Z,14.00
2023-04-10T04:25:19.796Z,17.93
2023-04-10T04:27:46.980Z,18.23
2023-04-10T04:30:14.191Z,15.83
2023-04-10T04:32:41.466Z,17.40
2023-04-10T04:35:08.848Z,12.23
2023-04-10T04:37:37.867Z,12.77
2023-04-10T04:40:07.454Z,15.90
2023-04-10T04:42:34.630Z,14.27
2023-04-10T04:45:01.764Z,16.53
2023-04-10T04:47:28.516Z,14.63
2023-04-10T04:49:55.688Z,15.27
2023-04-10T04:52:23.672Z,17.50
2023-04-10T04:54:50.899Z,16.20
2023-04-10T04:57:20.661Z,16.77
2023-04-10T04:59:47.404Z,17.43
2023-04-10T05:02:16.910Z,17.30
2023-04-10T05:04:44.204Z,17.00
2023-04-10T05:07:13.433Z,16.23
2023-04-10T05:09:42.713Z,18.33
2023-04-10T05:12:09.509Z,15.27
2023-04-10T05:14:36.714Z,14.80
2023-04-10T05:17:03.967Z,18.87
2023-04-10T05:19:30.808Z,17.67
2023-04-10T05:21:57.645Z,16.20
2023-04-10T05:24:26.879Z,50.17
2023-04-10T05:26:54.060Z,23.23
2023-04-10T05:29:21.252Z,15.60
2023-04-10T05:31:48.435Z,13.60
2023-04-10T05:34:15.739Z,15.23
2023-04-10T05:36:45.400Z,15.93
2023-04-10T05:39:13.516Z,15.73
2023-04-10T05:41:40.438Z,13.93
2023-04-10T05:44:07.686Z,16.23
2023-04-10T05:46:36.942Z,11.13
2023-04-10T05:49:03.737Z,12.70
2023-04-10T05:51:32.893Z,13.67
2023-04-10T05:54:02.560Z,13.07
2023-04-10T05:56:31.785Z,12.97
2023-04-10T05:58:58.937Z,11.63
2023-04-10T06:01:26.204Z,10.57
2023-04-10T06:03:53.473Z,12.37
2023-04-10T06:06:24.382Z,12.77
2023-04-10T06:08:51.733Z,14.53
2023-04-10T06:11:19.134Z,12.17
2023-04-10T06:13:46.081Z,11.13
2023-04-10T06:16:16.483Z,10.33
2023-04-10T06:18:46.573Z,11.53
2023-04-10T06:21:14.634Z,13.97
2023-04-10T06:23:42.147Z,10.53
2023-04-10T06:26:09.361Z,12.67
2023-04-10T06:28:37.112Z,29.50
2023-04-10T06:31:04.520Z,18.50
2023-04-10T06:33:31.806Z,12.57
2023-04-10T06:35:59.056Z,13.20
2023-04-10T06:38:26.306Z,15.50
2023-04-10T06:40:58.255Z,11.93
2023-04-10T06:43:25.572Z,14.03
2023-04-10T06:45:52.806Z,13.37
2023-04-10T06:48:19.538Z,12.93
2023-04-10T06:50:51.287Z,15.70
2023-04-10T06:53:18.129Z,14.83
2023-04-10T06:55:47.868Z,17.07
2023-04-10T06:58:14.663Z,15.87
2023-04-10T07:00:41.531Z,13.43
2023-04-10T07:03:08.790Z,13.27
2023-04-10T07:05:35.816Z,12.50
2023-04-10T07:08:03.000Z,12.50
2023-04-10T07:10:30.428Z,11.47
2023-04-10T07:12:58.881Z,10.93
2023-04-10T07:15:26.178Z,15.37
2023-04-10T07:17:53.390Z,14.37
2023-04-10T07:20:22.685Z,12.13
2023-04-10T07:22:51.722Z,15.80
2023-04-10T07:25:18.978Z,14.37
2023-04-10T07:27:46.169Z,16.70
2023-04-10T07:30:13.885Z,12.63
2023-04-10T07:32:42.528Z,12.70
2023-04-10T07:35:12.270Z,13.73
2023-04-10T07:37:44.231Z,11.27
2023-04-10T07:40:11.642Z,17.07
2023-04-10T07:42:39.317Z,14.83
2023-04-10T07:45:06.691Z,13.40
2023-04-10T07:47:33.958Z,15.73
2023-04-10T07:50:00.851Z,14.20
2023-04-10T07:52:28.020Z,11.47
2023-04-10T07:54:55.245Z,13.93
2023-04-10T07:57:22.025Z,12.60
2023-04-10T07:59:49.195Z,14.97
2023-04-10T08:02:16.442Z,17.83
2023-04-10T08:04:46.100Z,13.37
2023-04-10T08:07:13.370Z,12.50
2023-04-10T08:09:40.416Z,11.47
2023-04-10T08:12:07.200Z,12.17
2023-04-10T08:14:36.434Z,11.63
2023-04-10T08:17:03.730Z,15.10
2023-04-10T08:19:33.060Z,14.33
2023-04-10T08:22:00.273Z,13.23
2023-04-10T08:24:27.049Z,19.30
2023-04-10T08:26:54.222Z,15.03
2023-04-10T08:29:21.394Z,15.03
2023-04-10T08:31:48.566Z,15.67
2023-04-10T08:34:15.482Z,15.13
2023-04-10T08:36:42.663Z,12.97
2023-04-10T08:39:09.868Z,15.53
2023-04-10T08:41:37.062Z,12.37
2023-04-10T08:44:06.120Z,14.13
2023-04-10T08:46:35.776Z,9.83
2023-04-10T08:49:03.769Z,10.33
2023-04-10T08:51:40.338Z,12.50
2023-04-10T08:54:08.293Z,10.07
2023-04-10T08:56:36.203Z,9.33
2023-04-10T08:59:03.604Z,11.03
2023-04-10T09:01:30.722Z,10.97
2023-04-10T09:03:58.477Z,12.37
2023-04-10T09:06:26.147Z,13.77
2023-04-10T09:08:53.470Z,10.33
2023-04-10T09:11:20.697Z,8.30
2023-04-10T09:13:49.646Z,9.67
2023-04-10T09:16:16.481Z,10.23
2023-04-10T09:18:45.097Z,7.93
2023-04-10T09:21:14.150Z,7.07
2023-04-10T09:23:46.663Z,9.77
2023-04-10T09:26:31.718Z,11.87
2023-04-10T09:29:02.334Z,11.80
2023-04-10T09:31:36.726Z,17.97
2023-04-10T09:34:13.796Z,9.43
2023-04-10T09:36:57.316Z,8.10
2023-04-10T09:39:42.924Z,10.50
2023-04-10T09:42:09.971Z,11.40
2023-04-10T09:44:37.917Z,11.80
2023-04-10T09:47:16.162Z,7.70
2023-04-10T09:49:53.456Z,7.00
2023-04-10T09:52:20.691Z,7.73
2023-04-10T09:54:47.507Z,6.63
2023-04-10T09:57:18.449Z,5.50
2023-04-10T09:59:49.955Z,7.67
2023-04-10T10:02:18.231Z,7.23
2023-04-10T10:04:46.541Z,5.27
2023-04-10T10:07:16.882Z,5.00
2023-04-10T10:09:44.521Z,7.33
2023-04-10T10:12:12.762Z,6.37
2023-04-10T10:14:56.725Z,12.63
2023-04-10T10:17:24.870Z,10.43
2023-04-10T10:20:02.318Z,7.07
2023-04-10T10:22:31.353Z,7.50
2023-04-10T10:24:59.587Z,8.00
2023-04-10T10:27:27.618Z,7.47
2023-04-10T10:29:55.544Z,4.90
2023-04-10T10:32:22.924Z,5.23
2023-04-10T10:34:53.042Z,6.67
2023-04-10T10:37:21.579Z,4.20
2023-04-10T10:40:01.277Z,8.40
2023-04-10T10:42:43.944Z,6.87
2023-04-10T10:45:17.522Z,8.87
2023-04-10T10:47:49.591Z,4.27
2023-04-10T10:50:18.870Z,5.63
2023-04-10T10:52:47.230Z,5.33
2023-04-10T10:55:24.422Z,7.13
2023-04-10T10:58:05.213Z,4.77
2023-04-10T11:00:50.426Z,4.20
2023-04-10T11:03:17.814Z,5.83
2023-04-10T11:05:55.121Z,6.63
2023-04-10T11:08:35.367Z,5.13
2023-04-10T11:11:06.044Z,6.60
2023-04-10T11:13:37.421Z,4.15
2023-04-10T11:16:05.209Z,4.78
2023-04-10T11:18:56.197Z,8.15
2023-04-10T11:21:34.263Z,5.68
2023-04-10T11:24:01.076Z,9.75
2023-04-10T11:26:41.293Z,5.60
2023-04-10T11:29:20.043Z,6.07
2023-04-10T11:31:55.749Z,5.20
2023-04-10T11:34:22.560Z,6.60
2023-04-10T11:36:53.334Z,8.73
2023-04-10T11:39:23.497Z,5.30
2023-04-10T11:41:54.197Z,6.40
2023-04-10T11:44:35.930Z,5.47
2023-04-10T11:47:03.111Z,7.05
2023-04-10T11:49:34.692Z,4.97
2023-04-10T11:52:02.038Z,5.68
2023-04-10T11:54:29.271Z,4.00
2023-04-10T11:57:14.542Z,4.22
2023-04-10T11:59:41.363Z,6.20
2023-04-10T12:02:09.565Z,6.32
2023-04-10T12:04:42.063Z,8.27
2023-04-10T12:07:12.015Z,5.47
2023-04-10T12:09:41.013Z,8.98
2023-04-10T12:12:08.373Z,6.13
2023-04-10T12:14:40.146Z,5.50
2023-04-10T12:17:09.036Z,6.72
2023-04-10T12:19:36.060Z,5.03
2023-04-10T12:22:03.243Z,5.32
2023-04-10T12:24:46.477Z,3.92
2023-04-10T12:27:28.763Z,5.50
2023-04-10T12:29:57.215Z,43.85
2023-04-10T12:32:24.665Z,5.78
2023-04-10T12:34:58.490Z,6.13
2023-04-10T12:37:26.617Z,5.15
2023-04-10T12:39:53.885Z,4.65
2023-04-10T12:42:22.719Z,6.18
2023-04-10T12:44:52.770Z,5.55
2023-04-10T12:47:25.700Z,8.73
2023-04-10T12:50:04.865Z,10.27
2023-04-10T12:52:34.118Z,5.23
2023-04-10T12:55:21.206Z,4.53
2023-04-10T12:57:51.835Z,4.27
2023-04-10T13:00:19.297Z,5.63
2023-04-10T13:02:46.563Z,8.60
2023-04-10T13:05:16.011Z,8.77
2023-04-10T13:07:43.296Z,8.90
2023-04-10T13:10:10.345Z,7.03
2023-04-10T13:12:38.926Z,7.70
2023-04-10T13:15:07.686Z,5.50
2023-04-10T13:17:35.400Z,5.63
2023-04-10T13:20:02.436Z,5.77
2023-04-10T13:22:29.256Z,6.13
2023-04-10T13:24:56.048Z,3.67
2023-04-10T13:27:23.232Z,3.73
2023-04-10T13:29:50.012Z,8.97
2023-04-10T13:32:19.068Z,5.47
2023-04-10T13:34:47.993Z,7.07
2023-04-10T13:37:14.739Z,6.03
2023-04-10T13:39:43.352Z,5.33
2023-04-10T13:42:10.121Z,6.50
2023-04-10T13:44:37.308Z,3.50
2023-04-10T13:47:04.077Z,6.53
2023-04-10T13:49:33.595Z,4.17
2023-04-10T13:52:00.388Z,8.87
2023-04-10T13:54:27.184Z,6.43
2023-04-10T13:56:54.834Z,8.50
2023-04-10T13:59:24.619Z,5.60
2023-04-10T14:01:52.755Z,4.73
2023-04-10T14:04:20.268Z,6.67
2023-04-10T14:06:47.016Z,9.43
2023-04-10T14:09:15.956Z,7.50
2023-04-10T14:11:43.141Z,5.73
2023-04-10T14:14:09.939Z,5.17
2023-04-10T14:16:36.833Z,10.87
2023-04-10T14:19:03.624Z,5.63
2023-04-10T14:21:31.739Z,8.53
2023-04-10T14:24:01.178Z,9.53
2023-04-10T14:26:30.628Z,5.47
2023-04-10T14:28:57.776Z,3.10
2023-04-10T14:31:29.506Z,3.67
2023-04-10T14:33:59.731Z,6.50
2023-04-10T14:36:29.270Z,5.67
2023-04-10T14:38:56.429Z,7.63
2023-04-10T14:41:25.728Z,4.07
2023-04-10T14:43:55.124Z,3.70
2023-04-10T14:46:22.094Z,5.23
2023-04-10T14:48:48.960Z,5.27
2023-04-10T14:51:16.165Z,4.57
2023-04-10T14:53:43.632Z,4.93
2023-04-10T14:56:13.632Z,4.27
2023-04-10T14:58:40.815Z,5.70
2023-04-10T15:01:11.890Z,10.00
2023-04-10T15:03:39.748Z,5.83
2023-04-10T15:06:07.302Z,7.87
2023-04-10T15:08:34.565Z,6.67
2023-04-10T15:11:05.291Z,4.33
2023-04-10T15:13:32.502Z,3.50
2023-04-10T15:16:00.623Z,7.07
2023-04-10T15:18:27.431Z,6.60
2023-04-10T15:21:01.457Z,5.57
2023-04-10T15:23:28.663Z,5.50
2023-04-10T15:25:55.393Z,7.47
2023-04-10T15:28:22.578Z,5.77
2023-04-10T15:30:50.252Z,5.73
2023-04-10T15:33:21.685Z,5.50
2023-04-10T15:35:49.536Z,6.17
2023-04-10T15:38:16.335Z,7.37
2023-04-10T15:40:43.149Z,4.73
2023-04-10T15:43:11.163Z,5.67
2023-04-10T15:45:37.948Z,5.30
2023-04-10T15:48:07.313Z,7.00
2023-04-10T15:50:35.188Z,5.53
2023-04-10T15:53:04.058Z,4.83
2023-04-10T15:55:31.292Z,5.33
2023-04-10T15:57:59.864Z,5.73
2023-04-10T16:00:31.602Z,5.20
2023-04-10T16:02:58.540Z,5.60
2023-04-10T16:05:25.594Z,6.60
2023-04-10T16:07:52.330Z,5.10
2023-04-10T16:10:19.499Z,5.73
2023-04-10T16:12:46.351Z,15.87
2023-04-10T16:15:13.350Z,8.00
2023-04-10T16:17:40.733Z,6.90
2023-04-10T16:20:08.177Z,3.83
2023-04-10T16:22:36.034Z,6.10
2023-04-10T16:25:05.975Z,3.03
2023-04-10T16:27:32.789Z,6.57
2023-04-10T16:30:02.060Z,6.70
2023-04-10T16:32:31.612Z,6.20
2023-04-10T16:35:01.186Z,4.80
2023-04-10T16:37:30.212Z,7.13
2023-04-10T16:39:59.189Z,5.80
2023-04-10T16:42:26.450Z,5.43
2023-04-10T16:44:55.459Z,5.77
2023-04-10T16:47:22.257Z,6.93
2023-04-10T16:49:53.772Z,6.47
2023-04-10T16:52:20.902Z,9.23
2023-04-10T16:54:48.085Z,7.43
2023-04-10T16:57:15.266Z,6.87
2023-04-10T16:59:42.796Z,4.73
2023-04-10T17:02:09.700Z,6.13
2023-04-10T17:04:36.907Z,9.23
2023-04-10T17:07:08.350Z,6.00
2023-04-10T17:09:35.832Z,7.00
2023-04-10T17:12:03.675Z,5.97
2023-04-10T17:14:32.678Z,8.77
2023-04-10T17:17:04.279Z,6.17
2023-04-10T17:19:31.560Z,6.87
2023-04-10T17:21:58.804Z,4.63
2023-04-10T17:24:26.089Z,5.20
2023-04-10T17:26:53.260Z,10.30
2023-04-10T17:29:20.588Z,7.13
2023-04-10T17:31:47.768Z,7.37
2023-04-10T17:34:14.970Z,8.87
2023-04-10T17:36:42.405Z,4.80
2023-04-10T17:39:09.163Z,6.30
2023-04-10T17:41:36.331Z,9.43
2023-04-10T17:44:03.295Z,10.00
2023-04-10T17:46:32.813Z,6.23
2023-04-10T17:49:01.492Z,9.37
2023-04-10T17:51:33.453Z,10.73
2023-04-10T17:54:03.133Z,5.90
2023-04-10T17:56:31.585Z,7.43
2023-04-10T17:59:00.616Z,6.30
2023-04-10T18:01:29.793Z,6.50
2023-04-10T18:03:59.936Z,5.13
2023-04-10T18:06:27.711Z,8.77
2023-04-10T18:08:55.214Z,7.37
2023-04-10T18:11:22.871Z,7.77
2023-04-10T18:13:52.175Z,7.67
2023-04-10T18:16:19.018Z,6.37
2023-04-10T18:18:46.306Z,12.53
2023-04-10T18:21:13.766Z,12.17
2023-04-10T18:23:40.693Z,6.63
2023-04-10T18:26:10.947Z,12.53
2023-04-10T18:28:42.081Z,11.87
2023-04-10T18:31:08.983Z,12.80
2023-04-10T18:33:36.242Z,10.33
2023-04-10T18:36:03.530Z,10.17
2023-04-10T18:38:32.894Z,8.67
2023-04-10T18:41:00.145Z,9.67
2023-04-10T18:43:27.694Z,7.67
2023-04-10T18:45:55.258Z,9.83
2023-04-10T18:48:22.230Z,9.97
2023-04-10T18:50:53.798Z,9.57
2023-04-10T18:53:21.353Z,11.77
2023-04-10T18:55:54.696Z,10.27
2023-04-10T18:58:22.091Z,9.63
2023-04-10T19:00:49.347Z,11.17
2023-04-10T19:03:16.703Z,10.43
2023-04-10T19:05:44.389Z,9.43
2023-04-10T19:08:14.674Z,15.57
2023-04-10T19:10:42.649Z,12.63
2023-04-10T19:13:15.742Z,19.97
2023-04-10T19:15:43.384Z,15.27
2023-04-10T19:18:10.515Z,16.50
2023-04-10T19:20:49.757Z,12.03
2023-04-10T19:23:18.785Z,14.53
2023-04-10T19:25:54.676Z,12.07
2023-04-10T19:28:23.091Z,13.60
2023-04-10T19:30:50.594Z,14.43
2023-04-10T19:33:17.825Z,17.90
2023-04-10T19:35:45.134Z,27.77
2023-04-10T19:38:11.968Z,26.20
2023-04-10T19:40:39.111Z,12.00
2023-04-10T19:43:06.548Z,14.90
2023-04-10T19:45:36.491Z,18.80
2023-04-10T19:48:06.157Z,15.20
2023-04-10T19:50:33.823Z,16.97
2023-04-10T19:53:01.030Z,13.80
2023-04-10T19:55:27.891Z,13.13
2023-04-10T19:57:57.553Z,13.33
2023-04-10T20:00:24.729Z,19.70
2023-04-10T20:02:52.066Z,17.00
2023-04-10T20:05:21.889Z,16.67
2023-04-10T20:07:49.443Z,18.90
2023-04-10T20:10:19.009Z,16.13
2023-04-10T20:12:48.226Z,14.23
2023-04-10T20:15:15.490Z,17.33
2023-04-10T20:17:42.282Z,15.57
2023-04-10T20:20:09.544Z,19.33
2023-04-10T20:22:36.918Z,24.17
2023-04-10T20:25:06.357Z,21.40
2023-04-10T20:27:33.526Z,20.70
2023-04-10T20:30:00.708Z,20.03
2023-04-10T20:32:28.014Z,22.90
2023-04-10T20:34:54.763Z,19.00
2023-04-10T20:37:25.919Z,23.87
2023-04-10T20:39:53.123Z,25.77
2023-04-10T20:42:23.253Z,20.63
2023-04-10T20:44:55.459Z,22.93
2023-04-10T20:47:22.187Z,19.57
2023-04-10T20:49:49.344Z,20.27
2023-04-10T20:52:16.144Z,21.67
2023-04-10T20:54:43.340Z,22.90
2023-04-10T20:57:10.470Z,20.93
2023-04-10T20:59:37.410Z,23.97
2023-04-10T21:02:04.660Z,21.77
2023-04-10T21:04:32.901Z,19.83
2023-04-10T21:07:00.384Z,21.80
2023-04-10T21:09:27.583Z,27.50
2023-04-10T21:11:54.772Z,20.13
2023-04-10T21:14:21.989Z,25.53
2023-04-10T21:16:51.250Z,24.53
2023-04-10T21:19:20.240Z,22.70
2023-04-10T21:21:47.387Z,29.93
2023-04-10T21:24:14.544Z,18.57
2023-04-10T21:26:41.297Z,20.97
2023-04-10T21:29:10.520Z,19.20
2023-04-10T21:31:39.944Z,20.47
2023-04-10T21:34:07.427Z,24.83
2023-04-10T21:36:34.927Z,21.07
2023-04-10T21:39:08.914Z,26.67
2023-04-10T21:41:38.817Z,28.83
2023-04-10T21:44:06.449Z,23.00
2023-04-10T21:46:33.953Z,26.70
2023-04-10T21:49:01.289Z,26.23
2023-04-10T21:51:28.392Z,21.93
2023-04-10T21:53:55.772Z,21.90
2023-04-10T21:56:22.544Z,22.00
2023-04-10T21:58:53.079Z,25.23
2023-04-10T22:01:20.409Z,21.33
2023-04-10T22:03:47.647Z,23.23
2023-04-10T22:06:17.167Z,21.97
2023-04-10T22:08:44.703Z,23.23
2023-04-10T22:11:14.103Z,23.17
2023-04-10T22:13:43.368Z,25.47
2023-04-10T22:16:10.810Z,17.03
2023-04-10T22:18:40.386Z,20.00
2023-04-10T22:21:07.747Z,20.80
2023-04-10T22:23:36.757Z,23.73
2023-04-10T22:26:06.405Z,22.90
2023-04-10T22:28:33.557Z,20.40
2023-04-10T22:31:05.233Z,21.90
2023-04-10T22:33:33.478Z,19.23
2023-04-10T22:36:03.023Z,24.53
2023-04-10T22:38:30.233Z,17.53
2023-04-10T22:40:57.437Z,18.73
2023-04-10T22:43:24.603Z,23.50
2023-04-10T22:45:51.830Z,26.73
2023-04-10T22:48:19.492Z,25.13
2023-04-10T22:50:46.696Z,19.87
2023-04-10T22:53:13.850Z,20.07
2023-04-10T22:55:42.779Z,23.93
2023-04-10T22:58:10.467Z,23.87
2023-04-10T23:00:37.629Z,21.63
2023-04-10T23:03:04.955Z,20.53
2023-04-10T23:05:33.113Z,23.07
2023-04-10T23:08:00.377Z,21.67
2023-04-10T23:10:27.578Z,22.67
2023-04-10T23:12:54.744Z,21.70
2023-04-10T23:15:24.387Z,23.50
2023-04-10T23:17:53.669Z,25.87
2023-04-10T23:20:20.583Z,19.97
2023-04-10T23:22:47.799Z,20.17
2023-04-10T23:25:15.001Z,20.10
2023-04-10T23:27:41.799Z,20.03
2023-04-10T23:30:08.777Z,23.23
2023-04-10T23:32:35.989Z,21.97
2023-04-10T23:35:03.389Z,19.57
2023-04-10T23:37:33.839Z,22.90
2023-04-10T23:40:00.771Z,18.97
2023-04-10T23:42:27.934Z,21.33
2023-04-10T23:44:55.290Z,25.93
2023-04-10T23:47:22.552Z,18.80
2023-04-10T23:49:49.287Z,21.10
2023-04-10T23:52:16.439Z,21.20
2023-04-10T23:54:43.788Z,22.20
2023-04-10T23:57:12.683Z,22.10
2023-04-10T23:59:41.939Z,24.63
